KDBQ/DBQ METAR and TAF weather

Enter ICAO airport designator
Station Type Date Time Source
KDBQ METAR 2021/01/27 12:53 UTC NOAA

KDBQ 271253Z 03005KT 10SM FEW100 M14/M16 A3034 RMK AO2 SLP296 T11391156


Station Type Date Time Source
KDBQ Decoded METAR 2021/01/27 12:53 UTC NOAA

DUBUQUE REGIONAL AIRPORT, IA, United States (KDBQ) 42-24N 90-42W 326M
Jan 27, 2021 - 07:53 AM EST / 2021.01.27 1253 UTC
Wind: from the NNE (030 degrees) at 6 MPH (5 KT):0
Visibility: 10 mile(s):0
Sky conditions: mostly clear
Temperature: 7.0 F (-13.9 C)
Windchill: -4 F (-20 C):1
Dew Point: 3.9 F (-15.6 C)
Relative Humidity: 86%
Pressure (altimeter): 30.34 in. Hg (1027 hPa)
ob: KDBQ 271253Z 03005KT 10SM FEW100 M14/M16 A3034 RMK AO2 SLP296 T11391156
cycle: 13

Station Type Date Time Source
KDBQ TAF 2021/01/27 12:51 UTC NOAA

TAF KDBQ 271147Z 2712/2812 04010KT P6SM FEW030 BKN120
FM280000 36005KT P6SM SCT090

Example: see airport list